Time;durP1;ratioP1;P1;durP2;ratioP2;P2;SDS_P1;SDS_P2;PMS_P1;PMS_P2;Temp;Humidity;BMP_temperature;BMP_pressure;BME280_temperature;BME280_humidity;BME280_pressure;Samples;Min_cycle;Max_cycle;Signal;HPM_P1;HPM_P2
2022/07/02 00:02:25;;;;;;;21.17;11.23;;;13.90;97.30;;;;;;5003830;28;20181;-83
2022/07/02 00:05:00;;;;;;;14.60;8.80;;;13.90;97.30;;;;;;5002817;28;20849;-82
2022/07/02 00:07:27;;;;;;;16.50;9.50;;;13.90;97.30;;;;;;4995057;28;20442;-81
2022/07/02 00:09:57;;;;;;;17.60;9.90;;;13.90;97.30;;;;;;4995677;28;20640;-81
2022/07/02 00:12:24;;;;;;;14.87;9.67;;;13.90;97.30;;;;;;5003658;28;20431;-81
2022/07/02 00:14:52;;;;;;;14.00;8.80;;;13.90;97.30;;;;;;5003059;28;20416;-82
2022/07/02 00:17:19;;;;;;;19.50;10.17;;;13.80;97.30;;;;;;5021313;28;20810;-82
2022/07/02 00:19:44;;;;;;;15.40;9.07;;;13.80;97.30;;;;;;5002207;28;20475;-82
2022/07/02 00:22:11;;;;;;;17.33;9.70;;;13.80;97.30;;;;;;5002988;28;20421;-82
2022/07/02 00:24:40;;;;;;;17.97;10.20;;;13.90;97.30;;;;;;5001667;28;20220;-82
2022/07/02 00:27:09;;;;;;;19.00;9.27;;;13.80;97.30;;;;;;5003283;28;20433;-83
2022/07/02 00:29:50;;;;;;;16.80;8.80;;;13.80;97.30;;;;;;5005442;28;20421;-82
2022/07/02 00:32:17;;;;;;;16.13;9.90;;;13.80;97.30;;;;;;5003658;28;20433;-81
2022/07/02 00:34:45;;;;;;;14.37;8.77;;;13.80;97.30;;;;;;5007462;28;20416;-84
2022/07/02 00:37:13;;;;;;;15.90;9.73;;;13.90;97.30;;;;;;5002889;28;20440;-81
2022/07/02 00:39:39;;;;;;;18.97;8.57;;;13.80;97.30;;;;;;4993387;28;20425;-82
2022/07/02 00:42:06;;;;;;;16.03;9.20;;;13.90;97.30;;;;;;4995544;28;20540;-79
2022/07/02 00:44:32;;;;;;;14.23;8.73;;;13.90;97.30;;;;;;4994560;28;20439;-79
2022/07/02 00:47:05;;;;;;;22.43;10.50;;;13.90;97.30;;;;;;4992066;28;20449;-80
2022/07/02 00:49:36;;;;;;;14.87;8.33;;;13.90;97.30;;;;;;5012605;28;20411;-81
2022/07/02 00:52:03;;;;;;;12.87;8.60;;;13.90;97.30;;;;;;4993340;28;20942;-80
2022/07/02 00:54:28;;;;;;;14.90;8.10;;;14.00;97.30;;;;;;4994312;28;20433;-81
2022/07/02 00:56:54;;;;;;;13.30;8.17;;;14.00;97.30;;;;;;4992814;28;21029;-80
2022/07/02 00:59:23;;;;;;;12.77;6.97;;;14.00;97.30;;;;;;4993080;28;20178;-81
2022/07/02 01:01:49;;;;;;;15.10;8.30;;;14.10;97.30;;;;;;4993145;28;20500;-80
2022/07/02 01:04:15;;;;;;;16.73;8.63;;;14.10;97.30;;;;;;4993388;28;20412;-79
2022/07/02 01:06:42;;;;;;;16.67;8.73;;;14.10;97.30;;;;;;4996003;28;20205;-80
2022/07/02 01:11:59;;;;;;;13.80;8.47;;;14.10;97.30;;;;;;5011949;28;20481;-80
2022/07/02 01:14:25;;;;;;;17.10;7.33;;;14.10;97.30;;;;;;4997962;28;20420;-79
2022/07/02 01:16:51;;;;;;;15.73;7.80;;;14.10;97.30;;;;;;4997057;28;20531;-81
2022/07/02 01:19:18;;;;;;;14.03;9.00;;;14.10;97.30;;;;;;4997189;28;20552;-80
2022/07/02 01:22:15;;;;;;;13.10;7.63;;;14.00;97.30;;;;;;5000729;28;20497;-80
2022/07/02 01:24:43;;;;;;;20.20;8.13;;;14.00;97.30;;;;;;4990310;28;20431;-80
2022/07/02 01:27:09;;;;;;;13.00;7.10;;;14.00;97.30;;;;;;4984240;28;20532;-80
2022/07/02 01:29:35;;;;;;;9.83;6.27;;;14.00;97.30;;;;;;4998642;28;20420;-79
2022/07/02 01:32:02;;;;;;;16.83;8.27;;;14.00;97.30;;;;;;4996875;28;20428;-80
2022/07/02 01:34:28;;;;;;;11.47;7.20;;;14.00;97.30;;;;;;5015547;28;20431;-80
2022/07/02 01:36:53;;;;;;;11.80;6.57;;;14.00;97.30;;;;;;4996478;28;20554;-80
2022/07/02 01:39:25;;;;;;;17.43;8.20;;;14.00;97.30;;;;;;4985546;28;20429;-81
2022/07/02 01:41:52;;;;;;;11.20;6.33;;;14.00;97.30;;;;;;4994766;28;20301;-82
2022/07/02 01:44:17;;;;;;;8.70;6.10;;;14.00;97.30;;;;;;4995478;28;20777;-81
2022/07/02 01:46:45;;;;;;;14.10;6.87;;;14.00;97.30;;;;;;4999657;28;20413;-79
2022/07/02 01:49:11;;;;;;;10.00;6.90;;;13.90;97.30;;;;;;4995346;28;20197;-81
2022/07/02 01:51:37;;;;;;;10.60;6.70;;;13.90;97.30;;;;;;4997786;28;20425;-81
2022/07/02 01:54:03;;;;;;;10.53;6.27;;;13.90;97.30;;;;;;4994688;28;20432;-80
2022/07/02 01:56:33;;;;;;;9.80;6.63;;;13.90;97.30;;;;;;4996015;28;20479;-81
2022/07/02 01:59:00;;;;;;;10.07;6.37;;;13.80;97.30;;;;;;4994696;28;20209;-80
2022/07/02 02:01:26;;;;;;;12.90;6.97;;;13.80;97.30;;;;;;4995731;28;21084;-79
2022/07/02 02:03:53;;;;;;;9.93;6.50;;;13.80;97.30;;;;;;4995240;28;20467;-81
2022/07/02 02:06:18;;;;;;;11.07;7.20;;;13.80;97.30;;;;;;4994729;28;20523;-81
2022/07/02 02:08:44;;;;;;;11.80;6.67;;;13.80;97.30;;;;;;4995148;28;20451;-81
2022/07/02 02:11:10;;;;;;;12.87;7.00;;;13.80;97.30;;;;;;4995169;28;20554;-81
2022/07/02 02:13:36;;;;;;;11.43;6.77;;;13.80;97.30;;;;;;4996962;28;20651;-81
2022/07/02 02:16:02;;;;;;;11.53;5.93;;;13.80;97.30;;;;;;4995356;28;20413;-81
2022/07/02 02:18:28;;;;;;;9.93;6.13;;;13.80;97.30;;;;;;4995188;28;20189;-81
2022/07/02 02:20:54;;;;;;;9.97;5.70;;;13.80;97.30;;;;;;5015983;28;20546;-80
2022/07/02 02:23:23;;;;;;;10.20;5.93;;;13.80;97.30;;;;;;4995282;28;20178;-81
2022/07/02 02:25:50;;;;;;;11.27;6.73;;;13.80;97.30;;;;;;4995069;28;20181;-81
2022/07/02 02:28:16;;;;;;;11.13;5.53;;;13.80;97.30;;;;;;4994783;28;20445;-81
2022/07/02 02:30:42;;;;;;;9.83;6.10;;;13.80;97.30;;;;;;4997883;28;20430;-80
2022/07/02 02:33:08;;;;;;;14.20;6.90;;;13.80;97.30;;;;;;4994995;28;20201;-81
2022/07/02 02:35:33;;;;;;;9.10;5.30;;;13.80;97.30;;;;;;4996766;28;20178;-80
2022/07/02 02:37:59;;;;;;;9.00;5.47;;;13.70;97.30;;;;;;4995166;28;20679;-81
2022/07/02 02:40:24;;;;;;;8.20;5.80;;;13.70;97.30;;;;;;4995091;28;20190;-80
2022/07/02 02:42:50;;;;;;;9.33;6.00;;;13.70;97.30;;;;;;5012033;28;20253;-81
2022/07/02 02:45:16;;;;;;;9.50;6.27;;;13.70;97.30;;;;;;5002147;28;20178;-81
2022/07/02 02:47:41;;;;;;;11.57;6.60;;;13.70;97.30;;;;;;4995262;28;20453;-80
2022/07/02 02:50:07;;;;;;;11.10;6.07;;;13.70;97.30;;;;;;4984512;28;20190;-80
2022/07/02 02:52:33;;;;;;;10.67;6.60;;;13.70;97.30;;;;;;4993923;28;20243;-80
2022/07/02 02:55:00;;;;;;;10.57;6.60;;;13.70;97.30;;;;;;4990076;28;20697;-80
2022/07/02 02:57:26;;;;;;;10.00;6.00;;;13.70;97.30;;;;;;4995794;28;20194;-80
2022/07/02 02:59:52;;;;;;;13.00;6.20;;;13.70;97.30;;;;;;4989186;28;20422;-80
2022/07/02 03:02:17;;;;;;;8.53;6.30;;;13.70;97.30;;;;;;4986679;28;20221;-81
2022/07/02 03:04:43;;;;;;;9.80;5.10;;;13.70;97.30;;;;;;4996851;28;20196;-80
2022/07/02 03:07:08;;;;;;;10.20;5.90;;;13.70;97.30;;;;;;5000499;28;20251;-80
2022/07/02 03:09:34;;;;;;;10.27;5.50;;;13.70;97.30;;;;;;4997407;28;20209;-80
2022/07/02 03:11:59;;;;;;;9.80;5.80;;;13.70;97.30;;;;;;5014374;28;20278;-81
2022/07/02 03:14:25;;;;;;;8.50;5.57;;;13.60;97.30;;;;;;4994468;28;20216;-80
2022/07/02 03:16:50;;;;;;;14.40;6.83;;;13.60;97.30;;;;;;4993721;28;20693;-81
2022/07/02 03:19:16;;;;;;;7.67;5.80;;;13.50;97.30;;;;;;4994384;28;20182;-81
2022/07/02 03:21:41;;;;;;;13.10;6.07;;;13.50;97.30;;;;;;4997362;28;20212;-81
2022/07/02 03:24:07;;;;;;;13.43;5.93;;;13.50;97.30;;;;;;5014295;28;20177;-80
2022/07/02 03:26:32;;;;;;;8.40;5.97;;;13.50;97.30;;;;;;4994917;28;20181;-80
2022/07/02 03:28:58;;;;;;;10.40;5.83;;;13.50;97.30;;;;;;4993914;28;20182;-81
2022/07/02 03:31:24;;;;;;;13.30;6.30;;;13.50;97.30;;;;;;4994069;28;20277;-80
2022/07/02 03:33:49;;;;;;;9.67;6.03;;;13.50;97.30;;;;;;4993948;28;20651;-81
2022/07/02 03:36:15;;;;;;;13.33;6.77;;;13.50;97.30;;;;;;4993657;28;20182;-80
2022/07/02 03:38:41;;;;;;;15.03;6.73;;;13.50;97.30;;;;;;4996617;28;20291;-81
2022/07/02 03:41:08;;;;;;;12.50;6.60;;;13.50;97.30;;;;;;4993268;28;20527;-80
2022/07/02 03:43:33;;;;;;;7.77;5.60;;;13.50;97.30;;;;;;4995873;28;20174;-80
2022/07/02 03:45:59;;;;;;;14.47;6.40;;;13.50;97.30;;;;;;4993656;28;20427;-80
2022/07/02 03:48:24;;;;;;;11.50;5.97;;;13.50;97.30;;;;;;4994179;28;20206;-80
2022/07/02 03:50:50;;;;;;;10.33;5.93;;;13.50;97.30;;;;;;4994349;28;20177;-80
2022/07/02 03:53:16;;;;;;;14.47;6.27;;;13.50;97.30;;;;;;4988490;28;20182;-80
2022/07/02 03:55:42;;;;;;;9.13;5.30;;;13.50;97.30;;;;;;4987565;28;20592;-80
2022/07/02 03:58:08;;;;;;;13.63;6.60;;;13.50;97.30;;;;;;4992351;28;20201;-81
2022/07/02 04:00:34;;;;;;;15.93;6.40;;;13.50;97.30;;;;;;4999629;28;21011;-79
2022/07/02 04:02:59;;;;;;;12.97;6.70;;;13.60;97.30;;;;;;5011653;28;20181;-81
2022/07/02 04:05:25;;;;;;;11.37;6.27;;;13.60;97.30;;;;;;5014268;28;20176;-80
2022/07/02 04:07:51;;;;;;;10.83;6.37;;;13.60;97.30;;;;;;4993069;28;20296;-80
2022/07/02 04:10:17;;;;;;;16.73;5.90;;;13.60;97.30;;;;;;4992825;28;20558;-80
2022/07/02 04:12:43;;;;;;;19.40;6.83;;;13.60;97.30;;;;;;4996851;28;20432;-81
2022/07/02 04:15:09;;;;;;;14.77;6.77;;;13.70;97.30;;;;;;4993263;28;20213;-81
2022/07/02 04:17:35;;;;;;;15.10;6.87;;;13.70;97.30;;;;;;4994414;28;20679;-79
2022/07/02 04:20:01;;;;;;;13.50;6.23;;;13.70;97.30;;;;;;5014047;28;20412;-80
2022/07/02 04:22:28;;;;;;;8.93;6.10;;;13.70;97.30;;;;;;5013875;28;20237;-80
2022/07/02 04:24:54;;;;;;;13.40;6.30;;;13.70;97.30;;;;;;4992160;28;20433;-80
2022/07/02 04:27:19;;;;;;;10.57;5.83;;;13.80;97.30;;;;;;4991840;28;20469;-81
2022/07/02 04:29:45;;;;;;;12.60;6.90;;;13.80;97.30;;;;;;4984827;28;20644;-80
2022/07/02 04:32:10;;;;;;;10.90;5.93;;;13.80;97.30;;;;;;4992611;28;20205;-81
2022/07/02 04:34:36;;;;;;;10.40;6.03;;;13.80;97.30;;;;;;5012548;28;20191;-80
2022/07/02 04:37:02;;;;;;;10.47;6.57;;;13.90;97.30;;;;;;4992878;28;20205;-80
2022/07/02 04:39:27;;;;;;;13.33;6.47;;;13.90;97.30;;;;;;4993849;28;20232;-80
2022/07/02 04:41:53;;;;;;;9.60;5.77;;;13.90;97.30;;;;;;4991791;28;20198;-80
2022/07/02 04:44:18;;;;;;;9.73;5.53;;;14.00;97.30;;;;;;4981649;28;20736;-81
2022/07/02 04:46:44;;;;;;;9.27;6.20;;;14.00;97.30;;;;;;4994408;28;20196;-80
2022/07/02 04:49:10;;;;;;;11.77;6.10;;;14.00;97.30;;;;;;5013874;28;20184;-81
2022/07/02 04:51:35;;;;;;;9.53;6.50;;;14.10;97.30;;;;;;4994451;28;20181;-79
2022/07/02 04:54:01;;;;;;;9.23;6.23;;;14.10;97.30;;;;;;4992853;28;20535;-80
2022/07/02 04:56:27;;;;;;;10.83;6.90;;;14.10;97.30;;;;;;4992953;28;20185;-80
2022/07/02 04:58:54;;;;;;;17.53;6.37;;;14.20;97.30;;;;;;4992220;28;20202;-80
2022/07/02 05:01:20;;;;;;;11.17;7.70;;;14.20;97.30;;;;;;4991871;28;20488;-80
2022/07/02 05:03:45;;;;;;;13.73;7.60;;;14.20;97.30;;;;;;4987948;28;20412;-80
2022/07/02 05:06:11;;;;;;;9.33;7.00;;;14.20;97.30;;;;;;4990941;28;20182;-80
2022/07/02 05:08:36;;;;;;;14.17;7.23;;;14.30;97.30;;;;;;4986444;28;20195;-80
2022/07/02 05:11:02;;;;;;;17.13;6.57;;;14.30;97.30;;;;;;4992046;28;20182;-80
2022/07/02 05:13:28;;;;;;;13.40;8.13;;;14.40;97.30;;;;;;4993151;28;20185;-81
2022/07/02 05:15:53;;;;;;;15.63;7.10;;;14.40;97.30;;;;;;4992405;28;20189;-80
2022/07/02 05:18:19;;;;;;;10.20;6.63;;;14.50;97.30;;;;;;4992963;28;20285;-81
2022/07/02 05:20:44;;;;;;;21.87;7.53;;;14.50;97.30;;;;;;4988558;28;20681;-81
2022/07/02 05:23:10;;;;;;;14.50;7.43;;;14.50;97.30;;;;;;4984789;28;20181;-84
2022/07/02 05:25:36;;;;;;;14.97;7.27;;;14.60;97.30;;;;;;4999946;28;20671;-82
2022/07/02 05:28:05;;;;;;;11.73;7.57;;;14.60;97.30;;;;;;5018556;28;20686;-82
2022/07/02 05:30:30;;;;;;;12.50;7.10;;;14.70;97.30;;;;;;4999506;28;20274;-82
2022/07/02 05:32:56;;;;;;;13.17;8.00;;;14.80;97.30;;;;;;4997646;28;20453;-84
2022/07/02 05:35:22;;;;;;;12.50;7.73;;;14.80;97.30;;;;;;4998592;28;20190;-82
2022/07/02 05:37:47;;;;;;;10.20;6.43;;;14.80;97.30;;;;;;4997055;28;20284;-83
2022/07/02 05:40:13;;;;;;;14.47;6.70;;;14.90;97.30;;;;;;4984414;28;20722;-85
2022/07/02 05:42:39;;;;;;;14.10;6.80;;;15.00;97.30;;;;;;5018434;28;20216;-82
2022/07/02 05:45:05;;;;;;;8.60;6.47;;;15.00;97.30;;;;;;4997500;28;20231;-85
2022/07/02 05:47:31;;;;;;;7.63;5.33;;;15.10;97.30;;;;;;4997905;28;20194;-82
2022/07/02 05:49:56;;;;;;;9.37;6.00;;;15.10;97.30;;;;;;4996126;28;20504;-86
2022/07/02 05:52:22;;;;;;;9.63;5.50;;;15.20;97.30;;;;;;4997139;28;20746;-81
2022/07/02 05:54:47;;;;;;;12.43;5.00;;;15.20;97.30;;;;;;4999573;28;20182;-83
2022/07/02 05:57:13;;;;;;;10.90;6.10;;;15.30;97.30;;;;;;4999981;28;20205;-83
2022/07/02 05:59:38;;;;;;;14.73;6.97;;;15.30;97.30;;;;;;5002281;28;20178;-82
2022/07/02 06:02:04;;;;;;;15.53;5.40;;;15.40;97.30;;;;;;4999274;28;20293;-83
2022/07/02 06:04:31;;;;;;;6.80;4.63;;;15.50;97.30;;;;;;5000096;28;20181;-82
2022/07/02 06:09:41;;;;;;;11.07;4.27;;;15.50;97.30;;;;;;5019345;28;20423;-83
2022/07/02 06:12:08;;;;;;;8.20;6.00;;;15.60;97.30;;;;;;5012660;28;20424;-82
2022/07/02 06:14:33;;;;;;;9.47;5.20;;;15.60;97.30;;;;;;5006413;28;20276;-85
2022/07/02 06:16:59;;;;;;;8.83;4.80;;;15.70;97.30;;;;;;5008623;28;20476;-82
2022/07/02 06:19:25;;;;;;;6.97;4.90;;;15.70;97.30;;;;;;5000604;28;20595;-83
2022/07/02 06:21:50;;;;;;;14.20;4.80;;;15.80;97.30;;;;;;4997780;28;20982;-84
2022/07/02 06:24:16;;;;;;;8.20;5.37;;;15.80;97.30;;;;;;5014386;28;20223;-83
2022/07/02 06:26:45;;;;;;;10.80;4.80;;;15.90;97.30;;;;;;5000964;28;20209;-84
2022/07/02 06:29:12;;;;;;;7.50;5.90;;;16.00;97.30;;;;;;4978160;28;20206;-83
2022/07/02 06:31:38;;;;;;;14.60;5.50;;;16.10;97.30;;;;;;4980097;28;20493;-83
2022/07/02 06:34:04;;;;;;;6.17;4.40;;;16.10;97.30;;;;;;5005902;28;20455;-86
2022/07/02 06:36:30;;;;;;;8.83;4.03;;;16.20;97.30;;;;;;4998749;28;20202;-83
2022/07/02 06:38:56;;;;;;;6.63;4.87;;;16.30;97.30;;;;;;5017543;28;20412;-83
2022/07/02 06:44:07;;;;;;;7.80;4.47;;;16.50;97.30;;;;;;5007954;28;20216;-84
2022/07/02 06:46:33;;;;;;;10.00;5.60;;;16.60;97.30;;;;;;4998848;28;20676;-83
2022/07/02 06:48:59;;;;;;;6.57;4.57;;;16.60;97.30;;;;;;5016924;28;20416;-83
2022/07/02 06:51:25;;;;;;;9.33;4.30;;;16.80;97.30;;;;;;4997026;28;20444;-84
2022/07/02 06:53:51;;;;;;;7.63;4.07;;;16.80;97.30;;;;;;4997007;28;20420;-82
2022/07/02 06:56:16;;;;;;;8.87;3.80;;;16.90;97.30;;;;;;4998343;28;20199;-83
2022/07/02 06:58:42;;;;;;;3.53;3.37;;;17.00;97.30;;;;;;5009084;28;20204;-82
2022/07/02 07:01:08;;;;;;;10.30;3.80;;;17.00;97.30;;;;;;4995329;28;20284;-83
2022/07/02 07:03:34;;;;;;;8.23;4.37;;;17.20;97.30;;;;;;4997588;28;20417;-85
2022/07/02 07:05:59;;;;;;;5.63;3.50;;;17.20;97.30;;;;;;4994863;28;20608;-84
2022/07/02 07:08:25;;;;;;;6.67;4.03;;;17.30;97.30;;;;;;4996639;28;20265;-84
2022/07/02 07:10:51;;;;;;;5.97;3.30;;;17.40;97.30;;;;;;4995296;28;20174;-82
2022/07/02 07:13:17;;;;;;;10.57;4.30;;;17.40;97.30;;;;;;4995798;28;20190;-82
2022/07/02 07:15:42;;;;;;;4.77;3.47;;;17.50;97.30;;;;;;4998921;28;20426;-82
2022/07/02 07:18:08;;;;;;;6.90;3.90;;;17.60;97.30;;;;;;4995891;28;20221;-84
2022/07/02 07:20:36;;;;;;;6.50;3.80;;;17.60;97.30;;;;;;4996055;28;20201;-85
2022/07/02 07:23:01;;;;;;;9.70;3.63;;;17.70;97.30;;;;;;4995030;28;20173;-83
2022/07/02 07:25:27;;;;;;;6.17;3.67;;;17.80;97.30;;;;;;5002914;28;20421;-83
2022/07/02 07:27:53;;;;;;;3.27;3.07;;;17.90;97.30;;;;;;4994003;28;20197;-84
2022/07/02 07:30:19;;;;;;;10.30;3.90;;;18.00;97.30;;;;;;4994008;28;20217;-84
2022/07/02 07:32:44;;;;;;;5.63;3.70;;;18.10;97.30;;;;;;4997128;28;20215;-84
2022/07/02 07:35:10;;;;;;;7.60;3.60;;;18.20;97.30;;;;;;4993592;28;20178;-83
2022/07/02 07:37:36;;;;;;;7.07;3.77;;;18.30;97.30;;;;;;4996650;28;20210;-84
2022/07/02 07:40:03;;;;;;;7.67;4.03;;;18.40;97.30;;;;;;4998225;28;20260;-84
2022/07/02 07:42:29;;;;;;;6.67;4.40;;;18.50;97.30;;;;;;4997625;28;20862;-83
2022/07/02 07:44:55;;;;;;;5.37;3.90;;;18.60;97.30;;;;;;4993485;28;20692;-83
2022/07/02 07:47:20;;;;;;;7.63;3.80;;;18.70;97.30;;;;;;5015929;28;20288;-83
2022/07/02 07:49:46;;;;;;;5.03;3.50;;;18.80;97.30;;;;;;4995118;28;20177;-83
2022/07/02 07:52:11;;;;;;;11.43;3.67;;;18.90;97.30;;;;;;4976268;28;20183;-83
2022/07/02 07:54:37;;;;;;;5.63;3.30;;;19.00;97.30;;;;;;4979891;28;20631;-83
2022/07/02 07:57:04;;;;;;;5.73;3.53;;;19.10;97.30;;;;;;4994255;28;20217;-83
2022/07/02 07:59:30;;;;;;;5.13;3.73;;;19.10;97.30;;;;;;4995859;28;20186;-83
2022/07/02 08:01:55;;;;;;;5.50;3.13;;;19.20;97.30;;;;;;4993945;28;20476;-84
2022/07/02 08:04:21;;;;;;;4.20;3.27;;;19.40;97.30;;;;;;4994429;28;20508;-83
2022/07/02 08:06:47;;;;;;;5.73;4.03;;;19.40;97.30;;;;;;4994011;28;20181;-85
2022/07/02 08:09:12;;;;;;;3.57;3.10;;;19.50;97.30;;;;;;4993106;28;20537;-83
2022/07/02 08:11:38;;;;;;;6.53;3.40;;;19.60;97.30;;;;;;4995010;28;20178;-83
2022/07/02 08:14:04;;;;;;;5.30;3.40;;;19.70;97.30;;;;;;4990905;28;21102;-83
2022/07/02 08:16:33;;;;;;;4.73;3.87;;;19.80;97.30;;;;;;4991698;28;20189;-84
2022/07/02 08:19:00;;;;;;;5.23;3.13;;;19.90;97.30;;;;;;5009259;28;20928;-82
2022/07/02 08:21:26;;;;;;;5.67;3.30;;;19.90;97.30;;;;;;5001859;28;20488;-83
2022/07/02 08:23:52;;;;;;;4.93;3.40;;;20.00;97.30;;;;;;4993844;28;20417;-84
2022/07/02 08:26:18;;;;;;;4.23;3.07;;;20.10;97.30;;;;;;5007185;28;20474;-84
2022/07/02 08:28:43;;;;;;;4.47;2.90;;;20.20;97.30;;;;;;4996187;28;20546;-84
2022/07/02 08:31:09;;;;;;;5.30;3.60;;;20.30;97.30;;;;;;4997608;28;20197;-84
2022/07/02 08:33:36;;;;;;;5.60;2.67;;;20.50;97.30;;;;;;4994976;28;20200;-83
2022/07/02 08:36:02;;;;;;;3.70;2.70;;;20.60;96.90;;;;;;4993561;28;20196;-84
2022/07/02 08:38:28;;;;;;;4.70;2.40;;;20.70;96.50;;;;;;4993811;28;20455;-84
2022/07/02 08:40:54;;;;;;;2.53;1.80;;;20.80;95.90;;;;;;4999316;28;20491;-82
2022/07/02 08:43:26;;;;;;;5.20;2.83;;;20.80;93.90;;;;;;4996661;28;20494;-83
2022/07/02 08:45:52;;;;;;;3.37;3.17;;;20.90;92.90;;;;;;4994001;28;20204;-83
2022/07/02 08:48:20;;;;;;;4.07;2.70;;;20.90;93.30;;;;;;5014445;28;20439;-82
2022/07/02 08:50:49;;;;;;;4.80;2.20;;;21.00;94.20;;;;;;4991362;28;20469;-82
2022/07/02 08:53:17;;;;;;;4.90;2.80;;;21.10;93.80;;;;;;4996558;28;20442;-84
2022/07/02 08:55:44;;;;;;;3.63;2.50;;;21.20;93.60;;;;;;4995596;28;20416;-85
2022/07/02 08:58:11;;;;;;;3.27;2.20;;;21.30;93.20;;;;;;4992106;28;20465;-84
2022/07/02 09:00:38;;;;;;;4.77;2.50;;;21.40;92.80;;;;;;4995098;28;20471;-85
2022/07/02 09:03:05;;;;;;;5.10;2.70;;;21.50;92.10;;;;;;4993083;28;20448;-84
2022/07/02 09:05:32;;;;;;;3.30;2.40;;;21.60;93.40;;;;;;4993493;28;20417;-84
2022/07/02 09:07:58;;;;;;;5.70;2.90;;;21.80;92.20;;;;;;4990917;28;20441;-84
2022/07/02 09:10:26;;;;;;;6.03;2.40;;;21.80;91.70;;;;;;4992214;28;20456;-85
2022/07/02 09:12:53;;;;;;;3.87;2.33;;;21.90;90.90;;;;;;4994974;28;20212;-85
2022/07/02 09:15:19;;;;;;;2.43;2.27;;;22.00;91.20;;;;;;4992878;28;20421;-84
2022/07/02 09:17:45;;;;;;;3.40;2.20;;;22.10;90.80;;;;;;4992268;28;21121;-87
2022/07/02 09:20:12;;;;;;;3.43;2.20;;;22.10;90.50;;;;;;4991278;28;20237;-84
2022/07/02 09:22:46;;;;;;;5.67;2.30;;;22.20;87.70;;;;;;4992694;28;20644;-85
2022/07/02 09:25:18;;;;;;;7.07;2.60;;;22.30;88.40;;;;;;4992463;28;20501;-86
2022/07/02 09:27:45;;;;;;;3.70;1.80;;;22.40;88.10;;;;;;4994000;28;20824;-84
2022/07/02 09:30:14;;;;;;;2.97;1.80;;;22.40;88.30;;;;;;5015364;28;20420;-85
2022/07/02 09:32:45;;;;;;;4.60;2.40;;;22.40;88.20;;;;;;4997426;28;20424;-85
2022/07/02 09:35:22;;;;;;;2.93;1.90;;;22.40;85.90;;;;;;5015237;28;20427;-85
2022/07/02 09:37:49;;;;;;;3.93;2.20;;;22.30;84.10;;;;;;5014574;28;20961;-85
2022/07/02 09:40:17;;;;;;;7.50;2.73;;;22.20;85.30;;;;;;4994446;28;20515;-85
2022/07/02 09:42:49;;;;;;;6.23;2.13;;;22.10;86.80;;;;;;4999138;28;20582;-86
2022/07/02 09:45:16;;;;;;;2.90;1.97;;;22.20;88.00;;;;;;4995193;28;20484;-86
2022/07/02 09:47:48;;;;;;;2.00;1.67;;;22.30;86.30;;;;;;4998152;28;20458;-85
2022/07/02 09:50:16;;;;;;;2.73;2.10;;;22.40;86.60;;;;;;4995843;28;20838;-83
2022/07/02 09:52:55;;;;;;;3.40;2.87;;;22.60;86.50;;;;;;4995017;28;20432;-83
2022/07/02 09:55:31;;;;;;;2.23;2.00;;;22.60;84.50;;;;;;5013050;28;20451;-84
2022/07/02 09:58:06;;;;;;;3.10;2.00;;;22.60;84.70;;;;;;4992761;28;21152;-83
2022/07/02 10:00:41;;;;;;;3.17;2.03;;;22.70;83.00;;;;;;4981985;28;20978;-83
2022/07/02 10:03:07;;;;;;;3.83;2.10;;;22.80;82.80;;;;;;4993005;28;20479;-82
2022/07/02 10:05:33;;;;;;;2.30;1.83;;;22.90;83.30;;;;;;4994744;28;20421;-82
2022/07/02 10:08:03;;;;;;;4.33;2.43;;;23.00;83.20;;;;;;5010851;28;20663;-83
2022/07/02 10:10:40;;;;;;;4.43;1.90;;;23.20;82.80;;;;;;4984923;28;20525;-83
2022/07/02 10:13:06;;;;;;;4.43;2.17;;;23.30;82.00;;;;;;4993261;28;20467;-83
2022/07/02 10:15:36;;;;;;;2.97;2.10;;;23.50;81.60;;;;;;5012046;28;20470;-83
2022/07/02 10:18:03;;;;;;;2.47;1.93;;;23.50;82.40;;;;;;4992317;28;20444;-84
2022/07/02 10:20:29;;;;;;;3.10;1.83;;;23.50;81.90;;;;;;4993414;28;20474;-83
2022/07/02 10:23:00;;;;;;;2.43;1.50;;;23.40;81.50;;;;;;5014290;28;20427;-84
2022/07/02 10:25:26;;;;;;;4.53;1.80;;;23.40;81.30;;;;;;4993463;28;20571;-83
2022/07/02 10:27:58;;;;;;;7.43;2.30;;;23.30;81.50;;;;;;4992351;28;20444;-84
2022/07/02 10:30:31;;;;;;;3.50;2.10;;;23.30;82.60;;;;;;4996319;28;20197;-83
2022/07/02 10:33:21;;;;;;;4.13;1.70;;;23.40;83.20;;;;;;4992456;28;20418;-84
2022/07/02 10:35:48;;;;;;;1.77;1.70;;;23.50;83.00;;;;;;4992096;28;20421;-83
2022/07/02 10:38:14;;;;;;;1.80;1.70;;;23.70;81.60;;;;;;4992500;28;21028;-83
2022/07/02 10:40:47;;;;;;;1.77;1.73;;;23.90;79.30;;;;;;4994996;28;20484;-84
2022/07/02 10:43:16;;;;;;;1.77;1.73;;;24.00;81.60;;;;;;5013457;28;20523;-83
2022/07/02 10:45:42;;;;;;;9.67;1.90;;;24.10;83.00;;;;;;5011488;28;20945;-84
2022/07/02 10:48:11;;;;;;;2.90;1.70;;;24.20;82.90;;;;;;4992469;28;20486;-84
2022/07/02 10:50:39;;;;;;;2.57;1.80;;;24.30;81.50;;;;;;4994590;28;20753;-84
2022/07/02 10:53:17;;;;;;;3.00;2.00;;;24.40;82.00;;;;;;4991850;28;20425;-84
2022/07/02 10:56:04;;;;;;;3.10;1.93;;;24.50;81.70;;;;;;4997830;28;20436;-84
2022/07/02 10:58:34;;;;;;;2.27;1.70;;;24.60;80.60;;;;;;4995055;28;20456;-84
2022/07/02 11:01:14;;;;;;;2.83;2.00;;;24.70;79.30;;;;;;4994252;28;20469;-84
2022/07/02 11:04:00;;;;;;;2.90;1.80;;;24.80;79.50;;;;;;4995499;28;20421;-84
2022/07/02 11:06:33;;;;;;;2.53;2.03;;;24.90;80.80;;;;;;4992585;28;20413;-84
2022/07/02 11:09:00;;;;;;;1.83;1.80;;;24.90;79.90;;;;;;4991787;28;20440;-82
2022/07/02 11:11:43;;;;;;;2.30;1.93;;;24.80;77.20;;;;;;4976368;28;20425;-83
2022/07/02 11:14:11;;;;;;;2.50;1.90;;;24.60;77.30;;;;;;4991776;28;20863;-84
2022/07/02 11:16:51;;;;;;;3.27;1.80;;;24.50;78.10;;;;;;4993809;28;20840;-84
2022/07/02 11:19:29;;;;;;;2.93;1.87;;;24.30;78.00;;;;;;4980963;28;20470;-83
2022/07/02 11:22:00;;;;;;;5.30;2.20;;;24.20;79.80;;;;;;4978132;28;20904;-83
2022/07/02 11:24:28;;;;;;;5.23;2.13;;;24.20;81.40;;;;;;5003830;28;20430;-83
2022/07/02 11:26:54;;;;;;;7.40;1.90;;;24.20;81.40;;;;;;4996227;28;20942;-82
2022/07/02 11:29:20;;;;;;;3.87;1.93;;;24.20;80.30;;;;;;4995266;28;20440;-83
2022/07/02 11:31:52;;;;;;;3.80;1.73;;;24.10;78.90;;;;;;5003519;28;20426;-83
2022/07/02 11:34:22;;;;;;;2.00;1.77;;;24.00;79.00;;;;;;5001813;28;20519;-83
2022/07/02 11:36:48;;;;;;;2.17;1.70;;;23.90;78.60;;;;;;4995081;28;20435;-83
2022/07/02 11:39:16;;;;;;;2.20;1.80;;;23.80;78.90;;;;;;5001057;28;20421;-83
2022/07/02 11:41:42;;;;;;;2.00;1.40;;;23.70;79.60;;;;;;5010584;28;20292;-84
2022/07/02 11:44:20;;;;;;;5.23;1.97;;;23.70;80.20;;;;;;4990879;28;20425;-84
2022/07/02 11:46:54;;;;;;;2.70;2.00;;;23.70;80.50;;;;;;4999407;28;20407;-84
2022/07/02 11:49:21;;;;;;;1.60;1.57;;;23.70;81.10;;;;;;4990931;28;20425;-83
2022/07/02 11:51:48;;;;;;;3.10;1.70;;;23.60;81.40;;;;;;5011698;28;20409;-83
2022/07/02 11:54:15;;;;;;;2.30;1.77;;;23.60;81.60;;;;;;4991030;28;20794;-83
2022/07/02 11:56:42;;;;;;;2.50;1.77;;;23.60;80.80;;;;;;4993567;28;20427;-83
2022/07/02 11:59:09;;;;;;;3.67;1.87;;;23.70;79.50;;;;;;4991206;28;20425;-83
2022/07/02 12:01:37;;;;;;;3.07;1.90;;;23.80;80.70;;;;;;4993136;28;20473;-84
2022/07/02 12:04:05;;;;;;;3.00;1.80;;;24.10;78.80;;;;;;4991311;28;20436;-83
2022/07/02 12:06:34;;;;;;;5.50;1.80;;;24.30;79.40;;;;;;5010495;28;20906;-83
2022/07/02 12:09:01;;;;;;;2.53;1.70;;;24.60;78.20;;;;;;4990966;28;20417;-84
2022/07/02 12:11:28;;;;;;;3.63;2.30;;;24.80;79.70;;;;;;4991740;28;20429;-83
2022/07/02 12:13:55;;;;;;;1.83;1.33;;;25.10;80.40;;;;;;4990870;28;20437;-84
2022/07/02 12:16:26;;;;;;;2.67;1.43;;;25.30;78.40;;;;;;4990789;28;20416;-83
2022/07/02 12:19:00;;;;;;;2.60;2.00;;;25.60;79.30;;;;;;4990603;28;20472;-85
2022/07/02 12:21:38;;;;;;;2.57;1.60;;;25.70;77.90;;;;;;4991254;28;20460;-84
2022/07/02 12:24:06;;;;;;;2.30;1.57;;;25.70;76.70;;;;;;4990699;28;20826;-83
2022/07/02 12:26:32;;;;;;;3.67;1.80;;;25.70;76.10;;;;;;4991857;28;20417;-82
2022/07/02 12:32:02;;;;;;;2.07;1.70;;;26.00;75.00;;;;;;5012142;28;20439;-84
2022/07/02 12:34:37;;;;;;;1.87;1.70;;;26.20;75.10;;;;;;4991654;28;20927;-84
2022/07/02 12:37:03;;;;;;;3.10;1.47;;;26.30;76.60;;;;;;4989684;28;20452;-84
2022/07/02 12:39:40;;;;;;;5.00;1.80;;;26.40;74.20;;;;;;4991980;28;20429;-82
2022/07/02 12:42:15;;;;;;;1.70;1.60;;;26.50;76.30;;;;;;4978891;28;20475;-85
2022/07/02 12:45:04;;;;;;;3.80;1.47;;;26.60;74.80;;;;;;4994439;28;20770;-86
2022/07/02 12:47:32;;;;;;;2.43;1.60;;;26.80;75.50;;;;;;5009420;28;20465;-86
2022/07/02 12:50:02;;;;;;;1.70;1.67;;;26.80;75.00;;;;;;4982058;28;20452;-85
2022/07/02 12:52:30;;;;;;;2.17;1.57;;;26.70;74.60;;;;;;4992445;28;20927;-85
2022/07/02 12:54:57;;;;;;;1.97;1.63;;;26.50;75.00;;;;;;4991797;28;20432;-85
2022/07/02 12:57:24;;;;;;;4.10;1.67;;;26.40;75.40;;;;;;4987631;28;20778;-85